Close

Questo sito utlizza cookie. Può leggere come li usiamo nella nostra Privacy Policy.


Warning: file(http://tgftp.nws.noaa.gov/data/observations/metar/stations/LIPQ.TXT): failed to open stream: HTTP request failed! in /web/htdocs/www.ronchitower.it/home/includes/scelta-header.php on line 5

Warning: implode(): Invalid arguments passed in /web/htdocs/www.ronchitower.it/home/includes/scelta-header.php on line 5
Ronchi Tower
Ronchi Tower

From Facebook

METAR & TAF

2021/01/18 03:20 LIPQ 180320Z AUTO 36004KT 310V040 9999 BKN045/// M01/M05 Q1022
2021/01/17 18:22 TAF LIPQ 171700Z 1718/1818 05008KT 9999 SCT040
2021/01/18 03:20 LIPZ 180320Z 02008KT 9999 SCT045 M01/M05 Q1022 NOSIG
2021/01/17 18:22 TAF LIPZ 171700Z 1718/1824 02005KT 9999 SCT040 TEMPO 1820/1824 4000 BR
2021/01/18 03:20 LIPH 180320Z AUTO 02004KT 9999 FEW200/// M01/M06 Q1022
2021/01/17 18:22 TAF LIPH 171700Z 1718/1818 03005KT 9999 SCT050
2021/01/18 03:20 LIRF 180320Z 06007KT CAVOK 01/M01 Q1018 NOSIG
2021/01/17 18:22 TAF LIRF 171700Z 1718/1824 03008KT 9999 SCT030
2021/01/18 03:20 LIML 180320Z 30002KT 5000 R36/1200U BCFG NSC M03/M03 Q1022 NOSIG
2021/01/17 18:22 TAF LIML 171700Z 1718/1818 VRB05KT 3000 BR NSC TEMPO 1720/1806 0800 FZFG SCT006 TEMPO 1812/1816 6000
2021/01/18 03:20 EDDM 180320Z 27011KT 9999 SCT009 OVC012 01/M01 Q1022 R26L/290195 TEMPO BKN009
2021/01/18 00:58 TAF AMD EDDM 180052Z 1800/1906 VRB03KT 4000 -SN FEW008 SCT015 BECMG 1800/1802 25005KT 6000 FEW008 BKN012 TEMPO 1800/1814 2500 -SN SCT004 BKN008 BECMG 1805/1807 26011KT BECMG 1811/1814 BKN020
2021/01/18 03:20 EGSS 180320Z AUTO 23007KT 7000 NCD M01/M01 Q1023
2021/01/17 18:39 TAF TAF EGSS 171736Z 1718/1824 29008KT 9999 FEW030 BECMG 1800/1803 20010KT PROB30 1800/1809 9000 TEMPO 1817/1824 7000 RA BKN014 PROB30 TEMPO 1817/1824 4000 +RA BKN008 PROB40 TEMPO 1821/1824 20015G25KT
2021/01/18 03:20 EDDF 180320Z 20004KT 180V240 9999 FEW015 BKN022 01/00 Q1023 R25C/290095 R25L/290095 R18/290095 NOSIG
2021/01/18 02:58 TAF AMD EDDF 180249Z 1802/1906 21004KT 9000 SCT015 BKN025 PROB40 TEMPO 1802/1807 4000 -RASN BR BKN008 BECMG 1806/1809 21010KT PROB30 TEMPO 1818/1824 21015G25KT 4000 -RADZ BECMG 1900/1903 21015G25KT

FlightRadar24

Radar Meteo

Traffic data

Agosto 2018

Passeggeri: 63892-12,9% (rank: 23)
Nazionali 34490 -19,8%
Internazionali 29193 -3,0%

Movimenti: 1307+11,7% (rank: 24)
Tot commerciale 556 -7,2%
Aviazione generale 751 +31,5%

Cargo (tons): 20,6+62,5% (rank: 21)

Gennaio - Agosto 2018

Passeggeri: 507438-3,5% (rank: 23)
Nazionali 322655 -4,9%
Internazionali 182927 -0,7%

Movimenti: 10366-4,25 (rank: 22)
Tot commerciale 5328 -11,0%
Aviazione generale 5038 +4,2%

Cargo (tons): 299,2+61,9% (rank: 20)

Photo

Douglas DC-6B
Douglas DC-6B
Distinct views: 19
Douglas DC-6B
Douglas DC-6B
Distinct views: 87
Douglas DC-6B
Douglas DC-6B
Distinct views: 185
Sukhoi SSJ-100-95B Superjet 100
Sukhoi SSJ-100-95B Superjet 100
Total views: 2208